EXS12C EGBB-LYTV
Flight info
| Callsign | EXS12C |
|---|---|
| Flight time | N/A |
| Altitude | 39000 |
| Route | COWLY Q70 BIG UL9 KONAN DCT KOK DCT SISGA DCT RITAX DCT KRH DCT UTABA DCT BEMKI DCT ELMEM DCT DIRAB DCT VESAL DCT UPIRO DCT BABAG DCT PEVAL DCT NERRA L607 BALHA L187 TAZ |
| Aircraft | B738/M-SDE2E3FGHIRWXY/LB1 |
Departure
| Time | 2026-04-28 09:44 |
|---|---|
| Airport | Birmingham Airport (EGBB) |
Arrival
| Time | N/A |
|---|---|
| Airport | Tivat Airport (LYTV) |
| Time | Latitude | Longitude | Altitude | Speed | Heading |
|---|---|---|---|---|---|
| 2026-04-28 08:50 | 52.45119 | -1.73494 | 321 ft | 0 kts | 141° |
| 2026-04-28 09:11 | 52.45119 | -1.73495 | 322 ft | 0 kts | 137° |
| 2026-04-28 09:30 | 52.45120 | -1.73495 | 322 ft | 0 kts | 136° |
| 2026-04-28 09:31 | 52.45120 | -1.73496 | 322 ft | 0 kts | 136° |
| 2026-04-28 09:35 | 52.45123 | -1.73502 | 303 ft | 4 kts | 137° |
| 2026-04-28 09:35 | 52.45145 | -1.73526 | 330 ft | 4 kts | 159° |
| 2026-04-28 09:35 | 52.45169 | -1.73533 | 320 ft | 4 kts | 198° |
| 2026-04-28 09:36 | 52.45184 | -1.73519 | 319 ft | 0 kts | 236° |
| 2026-04-28 09:38 | 52.45171 | -1.73549 | 320 ft | 8 kts | 236° |
| 2026-04-28 09:38 | 52.45130 | -1.73649 | 321 ft | 15 kts | 236° |
| 2026-04-28 09:38 | 52.45072 | -1.73751 | 322 ft | 12 kts | 228° |
| 2026-04-28 09:39 | 52.45036 | -1.73868 | 322 ft | 12 kts | 277° |
| 2026-04-28 09:39 | 52.45097 | -1.73955 | 321 ft | 15 kts | 326° |
| 2026-04-28 09:39 | 52.45221 | -1.74093 | 322 ft | 23 kts | 326° |
| 2026-04-28 09:39 | 52.45351 | -1.74236 | 322 ft | 22 kts | 326° |
| 2026-04-28 09:40 | 52.45433 | -1.74435 | 321 ft | 21 kts | 297° |
| 2026-04-28 09:40 | 52.45509 | -1.74611 | 322 ft | 18 kts | 324° |
| 2026-04-28 09:40 | 52.45615 | -1.74727 | 316 ft | 19 kts | 326° |
| 2026-04-28 09:40 | 52.45736 | -1.74862 | 310 ft | 23 kts | 326° |
| 2026-04-28 09:41 | 52.45889 | -1.75032 | 305 ft | 27 kts | 326° |
| 2026-04-28 09:41 | 52.46039 | -1.75200 | 304 ft | 25 kts | 326° |
| 2026-04-28 09:41 | 52.46180 | -1.75355 | 302 ft | 24 kts | 325° |
| 2026-04-28 09:41 | 52.46318 | -1.75509 | 301 ft | 25 kts | 326° |
| 2026-04-28 09:42 | 52.46469 | -1.75678 | 301 ft | 27 kts | 326° |
| 2026-04-28 09:42 | 52.46605 | -1.75826 | 306 ft | 16 kts | 323° |
| 2026-04-28 09:42 | 52.46610 | -1.75979 | 306 ft | 16 kts | 237° |
| 2026-04-28 09:42 | 52.46531 | -1.76071 | 306 ft | 15 kts | 162° |
| 2026-04-28 09:43 | 52.46465 | -1.76002 | 310 ft | 0 kts | 146° |
| 2026-04-28 09:43 | 52.46374 | -1.75900 | 310 ft | 53 kts | 146° |
| 2026-04-28 09:43 | 52.45830 | -1.75293 | 320 ft | 133 kts | 149° |
| 2026-04-28 09:44 | 52.44899 | -1.74317 | 666 ft | 168 kts | 142° |
| 2026-04-28 09:44 | 52.43905 | -1.73341 | 1860 ft | 159 kts | 141° |
| 2026-04-28 09:44 | 52.43006 | -1.72491 | 3097 ft | 143 kts | 140° |
| 2026-04-28 09:44 | 52.42119 | -1.71614 | 3804 ft | 160 kts | 139° |
| 2026-04-28 09:45 | 52.41139 | -1.70542 | 4402 ft | 181 kts | 137° |
| 2026-04-28 09:45 | 52.39961 | -1.69448 | 4886 ft | 211 kts | 146° |
| 2026-04-28 09:45 | 52.38551 | -1.68314 | 5221 ft | 236 kts | 147° |
| 2026-04-28 09:45 | 52.36986 | -1.67079 | 5554 ft | 261 kts | 148° |
| 2026-04-28 09:46 | 52.35316 | -1.65767 | 6390 ft | 268 kts | 148° |
| 2026-04-28 09:46 | 52.33629 | -1.64436 | 7424 ft | 270 kts | 148° |
| 2026-04-28 09:46 | 52.31928 | -1.63081 | 8407 ft | 275 kts | 147° |
| 2026-04-28 09:46 | 52.30196 | -1.61691 | 9391 ft | 279 kts | 147° |
| 2026-04-28 09:47 | 52.28468 | -1.60296 | 10379 ft | 283 kts | 147° |
| 2026-04-28 09:47 | 52.26669 | -1.58834 | 10999 ft | 300 kts | 147° |
| 2026-04-28 09:47 | 52.24716 | -1.57231 | 11247 ft | 327 kts | 147° |
| 2026-04-28 09:47 | 52.22645 | -1.55540 | 11909 ft | 338 kts | 147° |
| 2026-04-28 09:48 | 52.20527 | -1.53821 | 12798 ft | 341 kts | 147° |
| 2026-04-28 09:48 | 52.18389 | -1.52089 | 13708 ft | 346 kts | 147° |
| 2026-04-28 09:48 | 52.16216 | -1.50327 | 14536 ft | 351 kts | 147° |
| 2026-04-28 09:48 | 52.14021 | -1.48547 | 15309 ft | 355 kts | 147° |
| 2026-04-28 09:49 | 52.11795 | -1.46742 | 16130 ft | 359 kts | 147° |
| 2026-04-28 09:49 | 52.09584 | -1.44951 | 16941 ft | 362 kts | 146° |
| 2026-04-28 09:49 | 52.07319 | -1.43115 | 17705 ft | 366 kts | 146° |
| 2026-04-28 09:49 | 52.05025 | -1.41257 | 18452 ft | 371 kts | 146° |
| 2026-04-28 09:50 | 52.02697 | -1.39373 | 19147 ft | 375 kts | 146° |
| 2026-04-28 09:50 | 52.00360 | -1.37487 | 19859 ft | 377 kts | 146° |
| 2026-04-28 09:50 | 51.97995 | -1.35579 | 20530 ft | 381 kts | 146° |
| 2026-04-28 09:50 | 51.95606 | -1.33654 | 21182 ft | 385 kts | 146° |
| 2026-04-28 09:51 | 51.93192 | -1.31710 | 21835 ft | 389 kts | 146° |
| 2026-04-28 09:51 | 51.90753 | -1.29750 | 22480 ft | 393 kts | 146° |
| 2026-04-28 09:51 | 51.88335 | -1.27808 | 23108 ft | 397 kts | 146° |
| 2026-04-28 09:51 | 51.85849 | -1.25815 | 23718 ft | 401 kts | 146° |
| 2026-04-28 09:52 | 51.83336 | -1.23802 | 24248 ft | 405 kts | 146° |
| 2026-04-28 09:52 | 51.80804 | -1.21776 | 24750 ft | 408 kts | 146° |
| 2026-04-28 09:52 | 51.78253 | -1.19739 | 25304 ft | 411 kts | 146° |
| 2026-04-28 09:52 | 51.75681 | -1.17688 | 25788 ft | 414 kts | 146° |
| 2026-04-28 09:53 | 51.73088 | -1.15622 | 26232 ft | 418 kts | 146° |
| 2026-04-28 09:53 | 51.70473 | -1.13539 | 26686 ft | 421 kts | 146° |
| 2026-04-28 09:53 | 51.67876 | -1.11475 | 27130 ft | 425 kts | 146° |
| 2026-04-28 09:53 | 51.65222 | -1.09356 | 27576 ft | 427 kts | 144° |
| 2026-04-28 09:54 | 51.62814 | -1.06695 | 27980 ft | 415 kts | 129° |
| 2026-04-28 09:54 | 51.60956 | -1.03237 | 28425 ft | 405 kts | 116° |
| 2026-04-28 09:54 | 51.59659 | -0.99294 | 28862 ft | 396 kts | 104° |
| 2026-04-28 09:54 | 51.58669 | -0.95152 | 29325 ft | 398 kts | 105° |
| 2026-04-28 09:55 | 51.57653 | -0.90964 | 29515 ft | 406 kts | 106° |
| 2026-04-28 09:55 | 51.56597 | -0.86730 | 29862 ft | 411 kts | 107° |
| 2026-04-28 09:55 | 51.55506 | -0.82443 | 30150 ft | 416 kts | 107° |
| 2026-04-28 09:55 | 51.54397 | -0.78128 | 30506 ft | 419 kts | 107° |
| 2026-04-28 09:56 | 51.53295 | -0.73853 | 30814 ft | 421 kts | 108° |
| 2026-04-28 09:56 | 51.52171 | -0.69493 | 31098 ft | 425 kts | 108° |
| 2026-04-28 09:56 | 51.51034 | -0.65087 | 31340 ft | 428 kts | 108° |
| 2026-04-28 09:56 | 51.49890 | -0.60656 | 31614 ft | 431 kts | 108° |
| 2026-04-28 09:57 | 51.48744 | -0.56221 | 31970 ft | 431 kts | 108° |
| 2026-04-28 09:57 | 51.47593 | -0.51780 | 32352 ft | 431 kts | 108° |
| 2026-04-28 09:57 | 51.46438 | -0.47328 | 32699 ft | 432 kts | 109° |
| 2026-04-28 09:57 | 51.45281 | -0.42877 | 33022 ft | 434 kts | 109° |
| 2026-04-28 09:58 | 51.44125 | -0.38436 | 33359 ft | 434 kts | 109° |
| 2026-04-28 09:58 | 51.42960 | -0.33968 | 33708 ft | 435 kts | 109° |
| 2026-04-28 09:58 | 51.41791 | -0.29496 | 34049 ft | 436 kts | 109° |
| 2026-04-28 09:58 | 51.40620 | -0.25022 | 34362 ft | 437 kts | 109° |
| 2026-04-28 09:59 | 51.39459 | -0.20598 | 34629 ft | 437 kts | 109° |
| 2026-04-28 09:59 | 51.38282 | -0.16118 | 34909 ft | 438 kts | 110° |
| 2026-04-28 09:59 | 51.37117 | -0.11692 | 35169 ft | 439 kts | 110° |
| 2026-04-28 09:59 | 51.35930 | -0.07193 | 35432 ft | 439 kts | 110° |
| 2026-04-28 10:00 | 51.34743 | -0.02700 | 35698 ft | 440 kts | 110° |
| 2026-04-28 10:00 | 51.33596 | 0.01653 | 35990 ft | 441 kts | 109° |
| 2026-04-28 10:00 | 51.32659 | 0.06289 | 36190 ft | 441 kts | 100° |
| 2026-04-28 10:00 | 51.32067 | 0.11112 | 36470 ft | 440 kts | 98° |
| 2026-04-28 10:01 | 51.31522 | 0.15891 | 36984 ft | 434 kts | 99° |
| 2026-04-28 10:01 | 51.30968 | 0.20652 | 37198 ft | 437 kts | 99° |
| 2026-04-28 10:01 | 51.30390 | 0.25422 | 37352 ft | 440 kts | 98° |
| 2026-04-28 10:01 | 51.29798 | 0.30157 | 37637 ft | 440 kts | 98° |
| 2026-04-28 10:02 | 51.29203 | 0.34953 | 37847 ft | 442 kts | 98° |
| 2026-04-28 10:02 | 51.28614 | 0.39792 | 38058 ft | 443 kts | 99° |
| 2026-04-28 10:02 | 51.28034 | 0.44579 | 38498 ft | 439 kts | 100° |
| 2026-04-28 10:02 | 51.27456 | 0.49359 | 38755 ft | 439 kts | 99° |
| 2026-04-28 10:03 | 51.26873 | 0.54145 | 38933 ft | 441 kts | 98° |
| 2026-04-28 10:03 | 51.26281 | 0.58957 | 39113 ft | 442 kts | 99° |
| 2026-04-28 10:03 | 51.25071 | 0.68148 | 39256 ft | 447 kts | 101° |
| 2026-04-28 10:04 | 51.24428 | 0.73006 | 39362 ft | 446 kts | 99° |
| 2026-04-28 10:04 | 51.23817 | 0.77792 | 39368 ft | 447 kts | 99° |
| 2026-04-28 10:04 | 51.22733 | 0.86438 | 39358 ft | 453 kts | 99° |
| 2026-04-28 10:05 | 51.21496 | 0.96255 | 39292 ft | 458 kts | 99° |
| 2026-04-28 10:05 | 51.20387 | 1.04893 | 39280 ft | 457 kts | 100° |
| 2026-04-28 10:06 | 51.19096 | 1.14759 | 39261 ft | 451 kts | 100° |
| 2026-04-28 10:06 | 51.17825 | 1.24395 | 39265 ft | 446 kts | 100° |
| 2026-04-28 10:07 | 51.16539 | 1.34097 | 39274 ft | 450 kts | 101° |
| 2026-04-28 10:07 | 51.15770 | 1.44030 | 39274 ft | 455 kts | 91° |
| 2026-04-28 10:08 | 51.15366 | 1.54150 | 39262 ft | 460 kts | 91° |
| 2026-04-28 10:08 | 51.14924 | 1.64230 | 39251 ft | 457 kts | 93° |
| 2026-04-28 10:09 | 51.14430 | 1.74235 | 39254 ft | 450 kts | 93° |
| 2026-04-28 10:09 | 51.13925 | 1.84138 | 39251 ft | 447 kts | 93° |
| 2026-04-28 10:10 | 51.13416 | 1.94020 | 39240 ft | 450 kts | 94° |
| 2026-04-28 10:10 | 51.12891 | 2.03946 | 39251 ft | 457 kts | 94° |
| 2026-04-28 10:11 | 51.12349 | 2.14086 | 39245 ft | 463 kts | 94° |
| 2026-04-28 10:11 | 51.11798 | 2.24309 | 39225 ft | 462 kts | 94° |
| 2026-04-28 10:12 | 51.11245 | 2.34402 | 39211 ft | 453 kts | 95° |
| 2026-04-28 10:12 | 51.10690 | 2.44361 | 39222 ft | 451 kts | 95° |
| 2026-04-28 10:13 | 51.10132 | 2.54230 | 39209 ft | 450 kts | 95° |
| 2026-04-28 10:13 | 51.09340 | 2.64110 | 39199 ft | 451 kts | 104° |
| 2026-04-28 10:14 | 51.06963 | 2.73315 | 39212 ft | 452 kts | 117° |
| 2026-04-28 10:14 | 51.03970 | 2.82118 | 39227 ft | 454 kts | 118° |
| 2026-04-28 10:15 | 51.00985 | 2.90883 | 39226 ft | 455 kts | 118° |
| 2026-04-28 10:15 | 50.97995 | 2.99768 | 39215 ft | 457 kts | 117° |
| 2026-04-28 10:16 | 50.95024 | 3.08631 | 39205 ft | 458 kts | 117° |
| 2026-04-28 10:16 | 50.92023 | 3.17558 | 39195 ft | 459 kts | 117° |
| 2026-04-28 10:17 | 50.89033 | 3.26418 | 39187 ft | 459 kts | 117° |
| 2026-04-28 10:17 | 50.86012 | 3.35335 | 39187 ft | 459 kts | 118° |
| 2026-04-28 10:18 | 50.82987 | 3.44234 | 39186 ft | 459 kts | 118° |
| 2026-04-28 10:18 | 50.79956 | 3.53117 | 39181 ft | 459 kts | 118° |
| 2026-04-28 10:19 | 50.76927 | 3.61964 | 39187 ft | 459 kts | 118° |
| 2026-04-28 10:19 | 50.73904 | 3.70761 | 39189 ft | 459 kts | 118° |
| 2026-04-28 10:20 | 50.70854 | 3.79608 | 39182 ft | 459 kts | 118° |
| 2026-04-28 10:20 | 50.67803 | 3.88428 | 39191 ft | 460 kts | 118° |
| 2026-04-28 10:21 | 50.64733 | 3.97276 | 39191 ft | 460 kts | 118° |
| 2026-04-28 10:21 | 50.61684 | 4.06056 | 39177 ft | 461 kts | 117° |
| 2026-04-28 10:22 | 50.58880 | 4.15094 | 39186 ft | 461 kts | 115° |
| 2026-04-28 10:22 | 50.56191 | 4.24272 | 39174 ft | 462 kts | 114° |
| 2026-04-28 10:23 | 50.53486 | 4.33421 | 39184 ft | 463 kts | 115° |
| 2026-04-28 10:23 | 50.50735 | 4.42585 | 39184 ft | 464 kts | 115° |
| 2026-04-28 10:24 | 50.47980 | 4.51680 | 39189 ft | 466 kts | 115° |
| 2026-04-28 10:24 | 50.45184 | 4.60874 | 39180 ft | 467 kts | 115° |
| 2026-04-28 10:25 | 50.42385 | 4.70046 | 39173 ft | 467 kts | 115° |
| 2026-04-28 10:25 | 50.39566 | 4.79253 | 39159 ft | 469 kts | 115° |
| 2026-04-28 10:26 | 50.36759 | 4.88387 | 39163 ft | 468 kts | 115° |
| 2026-04-28 10:26 | 50.33925 | 4.97572 | 39151 ft | 469 kts | 115° |
| 2026-04-28 10:27 | 50.31114 | 5.06652 | 39154 ft | 468 kts | 115° |
| 2026-04-28 10:27 | 50.28276 | 5.15786 | 39133 ft | 468 kts | 116° |
| 2026-04-28 10:28 | 50.25463 | 5.24802 | 39142 ft | 467 kts | 116° |
| 2026-04-28 10:29 | 50.21174 | 5.38486 | 39133 ft | 467 kts | 116° |
| 2026-04-28 10:29 | 50.18307 | 5.47596 | 39119 ft | 468 kts | 116° |
| 2026-04-28 10:30 | 50.15429 | 5.56705 | 39122 ft | 468 kts | 116° |
| 2026-04-28 10:30 | 50.12561 | 5.65751 | 39125 ft | 469 kts | 116° |
| 2026-04-28 10:31 | 50.09671 | 5.74836 | 39112 ft | 470 kts | 116° |
| 2026-04-28 10:31 | 50.06703 | 5.83900 | 39118 ft | 470 kts | 119° |
| 2026-04-28 10:32 | 50.03444 | 5.92714 | 39099 ft | 470 kts | 121° |
| 2026-04-28 10:32 | 50.00281 | 6.01020 | 39105 ft | 470 kts | 121° |
| 2026-04-28 10:33 | 49.96964 | 6.09786 | 39107 ft | 471 kts | 121° |
| 2026-04-28 10:33 | 49.93661 | 6.18566 | 39103 ft | 471 kts | 121° |
| 2026-04-28 10:34 | 49.90356 | 6.27351 | 39103 ft | 472 kts | 121° |
| 2026-04-28 10:34 | 49.87389 | 6.35213 | 39098 ft | 472 kts | 121° |
| 2026-04-28 10:35 | 49.84088 | 6.43928 | 39085 ft | 472 kts | 121° |
| 2026-04-28 10:35 | 49.80908 | 6.52298 | 39093 ft | 472 kts | 122° |
| 2026-04-28 10:36 | 49.77594 | 6.60989 | 39074 ft | 473 kts | 122° |
| 2026-04-28 10:36 | 49.74296 | 6.69610 | 39090 ft | 472 kts | 122° |
| 2026-04-28 10:37 | 49.70942 | 6.78348 | 39073 ft | 473 kts | 122° |
| 2026-04-28 10:37 | 49.67680 | 6.86817 | 39085 ft | 473 kts | 122° |
| 2026-04-28 10:38 | 49.64310 | 6.95540 | 39091 ft | 473 kts | 122° |
| 2026-04-28 10:38 | 49.60940 | 7.04233 | 39100 ft | 473 kts | 122° |
| 2026-04-28 10:39 | 49.57583 | 7.12866 | 39087 ft | 473 kts | 122° |
| 2026-04-28 10:39 | 49.54189 | 7.21562 | 39099 ft | 473 kts | 123° |
| 2026-04-28 10:40 | 49.50799 | 7.30222 | 39090 ft | 473 kts | 123° |
| 2026-04-28 10:40 | 49.47394 | 7.38889 | 39100 ft | 474 kts | 123° |
| 2026-04-28 10:41 | 49.43977 | 7.47560 | 39099 ft | 474 kts | 123° |
| 2026-04-28 10:41 | 49.40557 | 7.56209 | 39103 ft | 475 kts | 123° |
| 2026-04-28 10:42 | 49.37143 | 7.64815 | 39103 ft | 476 kts | 123° |
| 2026-04-28 10:42 | 49.33694 | 7.73483 | 39101 ft | 477 kts | 123° |
| 2026-04-28 10:43 | 49.30233 | 7.82151 | 39103 ft | 477 kts | 124° |
| 2026-04-28 10:43 | 49.26761 | 7.90817 | 39099 ft | 477 kts | 124° |
| 2026-04-28 10:44 | 49.23288 | 7.99464 | 39083 ft | 477 kts | 124° |
| 2026-04-28 10:44 | 49.19839 | 8.08014 | 39083 ft | 477 kts | 124° |
| 2026-04-28 10:45 | 49.16351 | 8.16636 | 39093 ft | 477 kts | 124° |
| 2026-04-28 10:45 | 49.12838 | 8.25292 | 39085 ft | 477 kts | 124° |
| 2026-04-28 10:46 | 49.09358 | 8.33840 | 39094 ft | 478 kts | 125° |
| 2026-04-28 10:46 | 49.05889 | 8.42334 | 39089 ft | 478 kts | 125° |
| 2026-04-28 10:47 | 49.02378 | 8.50909 | 39083 ft | 478 kts | 125° |
| 2026-04-28 10:47 | 48.98578 | 8.59066 | 39082 ft | 473 kts | 137° |
| 2026-04-28 10:48 | 48.97030 | 8.61373 | 39074 ft | 469 kts | 144° |